createdAt,value
2019-01-14T00:01:35.358Z,7.70
2019-01-14T00:04:04.618Z,7.70
2019-01-14T00:06:33.929Z,7.70
2019-01-14T00:09:04.761Z,7.70
2019-01-14T00:11:33.957Z,7.80
2019-01-14T00:14:03.205Z,7.80
2019-01-14T00:16:32.380Z,7.80
2019-01-14T00:19:01.633Z,7.80
2019-01-14T00:21:30.792Z,7.80
2019-01-14T00:24:01.420Z,7.90
2019-01-14T00:26:30.673Z,7.80
2019-01-14T00:28:59.937Z,7.90
2019-01-14T00:31:29.100Z,7.90
2019-01-14T00:33:58.466Z,7.90
2019-01-14T00:36:28.933Z,7.90
2019-01-14T00:38:58.149Z,7.90
2019-01-14T00:41:27.472Z,7.90
2019-01-14T00:43:56.782Z,8.00
2019-01-14T00:46:26.095Z,8.00
2019-01-14T00:48:55.325Z,8.00
2019-01-14T00:51:24.507Z,8.00
2019-01-14T00:53:53.693Z,8.00
2019-01-14T00:56:22.902Z,7.80
2019-01-14T00:58:52.014Z,7.80
2019-01-14T01:01:21.234Z,7.80
2019-01-14T01:03:50.398Z,7.70
2019-01-14T01:06:24.630Z,7.70
2019-01-14T01:08:50.641Z,7.50
2019-01-14T01:11:19.828Z,7.60
2019-01-14T01:13:48.962Z,7.50
2019-01-14T01:16:18.220Z,7.60
2019-01-14T01:18:47.355Z,7.60
2019-01-14T01:21:16.565Z,7.60
2019-01-14T01:23:45.767Z,7.60
2019-01-14T01:26:15.137Z,7.60
2019-01-14T01:28:44.301Z,7.60
2019-01-14T01:31:13.468Z,7.50
2019-01-14T01:33:42.650Z,7.60
2019-01-14T01:36:11.808Z,7.70
2019-01-14T01:38:41.020Z,7.70
2019-01-14T01:41:10.270Z,7.70
2019-01-14T01:43:39.440Z,7.70
2019-01-14T01:46:08.602Z,7.70
2019-01-14T01:48:37.765Z,7.70
2019-01-14T01:51:06.963Z,7.70
2019-01-14T01:53:36.190Z,7.60
2019-01-14T01:56:05.437Z,7.60
2019-01-14T01:58:34.707Z,7.60
2019-01-14T02:01:04.281Z,7.60
2019-01-14T02:03:33.538Z,7.60
2019-01-14T02:06:02.653Z,7.60
2019-01-14T02:08:31.824Z,7.50
2019-01-14T02:11:01.185Z,7.50
2019-01-14T02:13:30.489Z,7.40
2019-01-14T02:15:59.694Z,7.50
2019-01-14T02:18:28.888Z,7.50
2019-01-14T02:20:58.057Z,7.50
2019-01-14T02:23:27.195Z,7.50
2019-01-14T02:25:56.334Z,7.40
2019-01-14T02:28:25.483Z,7.40
2019-01-14T02:30:54.696Z,7.40
2019-01-14T02:33:23.925Z,7.40
2019-01-14T02:35:53.133Z,7.40
2019-01-14T02:38:22.286Z,7.30
2019-01-14T02:40:51.534Z,7.30
2019-01-14T02:43:20.832Z,7.30
2019-01-14T02:45:50.067Z,7.30
2019-01-14T02:48:19.285Z,7.30
2019-01-14T02:50:48.521Z,7.20
2019-01-14T02:53:17.740Z,7.20
2019-01-14T02:55:46.959Z,7.10
2019-01-14T02:58:16.199Z,7.20
2019-01-14T03:00:45.387Z,7.10
2019-01-14T03:03:14.612Z,7.10
2019-01-14T03:05:43.820Z,7.10
2019-01-14T03:08:12.989Z,7.10
2019-01-14T03:10:42.253Z,7.00
2019-01-14T03:13:11.417Z,7.00
2019-01-14T03:15:40.597Z,7.00
2019-01-14T03:18:09.846Z,7.00
2019-01-14T03:20:39.038Z,6.90
2019-01-14T03:23:08.288Z,6.90
2019-01-14T03:25:37.408Z,6.90
2019-01-14T03:28:06.670Z,6.90
2019-01-14T03:30:35.881Z,6.80
2019-01-14T03:33:05.216Z,6.80
2019-01-14T03:35:34.354Z,6.80
2019-01-14T03:38:03.531Z,6.80
2019-01-14T03:40:32.692Z,6.80
2019-01-14T03:43:01.945Z,6.80
2019-01-14T03:45:31.073Z,6.80
2019-01-14T03:48:00.238Z,6.70
2019-01-14T03:50:29.347Z,6.70
2019-01-14T03:52:58.609Z,6.70
2019-01-14T03:55:27.778Z,6.70
2019-01-14T03:57:56.945Z,6.70
2019-01-14T04:00:26.238Z,6.60
2019-01-14T04:02:55.504Z,6.60
2019-01-14T04:05:24.632Z,6.60
2019-01-14T04:07:53.731Z,6.60
2019-01-14T04:10:22.916Z,6.60
2019-01-14T04:12:52.045Z,6.60
2019-01-14T04:15:21.352Z,6.50
2019-01-14T04:17:50.502Z,6.50
2019-01-14T04:20:20.022Z,6.40
2019-01-14T04:22:49.264Z,6.40
2019-01-14T04:25:18.418Z,6.30
2019-01-14T04:27:47.522Z,6.30
2019-01-14T04:30:19.274Z,6.30
2019-01-14T04:32:48.390Z,6.40
2019-01-14T04:35:18.589Z,6.30
2019-01-14T04:37:47.694Z,6.40
2019-01-14T04:40:16.844Z,6.30
2019-01-14T04:42:46.152Z,6.30
2019-01-14T04:45:15.580Z,6.40
2019-01-14T04:47:47.130Z,6.30
2019-01-14T04:50:18.213Z,6.30
2019-01-14T04:52:48.800Z,6.30
2019-01-14T04:55:18.010Z,6.30
2019-01-14T04:57:47.213Z,6.30
2019-01-14T05:00:21.661Z,6.40
2019-01-14T05:02:50.806Z,6.40
2019-01-14T05:05:20.069Z,6.40
2019-01-14T05:07:49.634Z,6.50
2019-01-14T05:10:19.221Z,6.60
2019-01-14T05:12:48.503Z,6.50
2019-01-14T05:15:17.836Z,6.50
2019-01-14T05:17:47.071Z,6.50
2019-01-14T05:20:21.759Z,6.50
2019-01-14T05:22:50.932Z,6.50
2019-01-14T05:25:20.104Z,6.50
2019-01-14T05:27:49.357Z,6.50
2019-01-14T05:30:18.673Z,6.50
2019-01-14T05:32:47.929Z,6.60
2019-01-14T05:35:17.273Z,6.60
2019-01-14T05:37:46.765Z,6.60
2019-01-14T05:40:18.988Z,6.60
2019-01-14T05:42:48.245Z,6.60
2019-01-14T05:45:17.568Z,6.60
2019-01-14T05:47:46.826Z,6.60
2019-01-14T05:50:16.153Z,6.70
2019-01-14T05:52:45.614Z,6.60
2019-01-14T05:55:15.109Z,6.50
2019-01-14T05:57:44.295Z,6.40
2019-01-14T06:00:25.004Z,6.30
2019-01-14T06:02:54.143Z,6.30
2019-01-14T06:05:23.390Z,6.20
2019-01-14T06:07:52.536Z,6.30
2019-01-14T06:10:21.828Z,6.20
2019-01-14T06:12:51.038Z,6.20
2019-01-14T06:15:20.387Z,6.20
2019-01-14T06:17:49.613Z,6.30
2019-01-14T06:20:19.714Z,6.20
2019-01-14T06:22:48.940Z,6.30
2019-01-14T06:25:18.126Z,6.30
2019-01-14T06:27:47.383Z,6.20
2019-01-14T06:30:18.868Z,6.30
2019-01-14T06:32:48.019Z,6.20
2019-01-14T06:35:17.408Z,6.20
2019-01-14T06:37:52.231Z,6.20
2019-01-14T06:40:18.674Z,6.20
2019-01-14T06:42:47.835Z,6.10
2019-01-14T06:45:17.123Z,6.10
2019-01-14T06:47:46.413Z,6.10
2019-01-14T06:50:16.741Z,6.10
2019-01-14T06:52:45.886Z,6.10
2019-01-14T06:55:15.415Z,6.10
2019-01-14T06:57:44.567Z,6.10
2019-01-14T07:00:19.349Z,6.10
2019-01-14T07:02:48.555Z,6.10
2019-01-14T07:05:17.804Z,6.00
2019-01-14T07:07:46.968Z,6.00
2019-01-14T07:10:19.884Z,6.00
2019-01-14T07:12:49.029Z,6.00
2019-01-14T07:15:18.195Z,6.10
2019-01-14T07:17:48.263Z,6.00
2019-01-14T07:20:17.727Z,6.10
2019-01-14T07:22:47.049Z,6.10
2019-01-14T07:25:17.840Z,6.10
2019-01-14T07:27:47.194Z,6.10
2019-01-14T07:30:18.202Z,6.00
2019-01-14T07:32:47.425Z,6.00
2019-01-14T07:35:17.041Z,5.90
2019-01-14T07:37:46.324Z,5.90
2019-01-14T07:40:15.934Z,5.90
2019-01-14T07:42:45.189Z,5.90
2019-01-14T07:45:16.046Z,6.20
2019-01-14T07:47:45.341Z,6.20
2019-01-14T07:50:15.901Z,6.60
2019-01-14T07:52:45.367Z,7.30
2019-01-14T07:55:14.694Z,7.10
2019-01-14T07:57:44.012Z,6.80
2019-01-14T08:00:16.209Z,6.80
2019-01-14T08:02:45.436Z,6.70
2019-01-14T08:05:14.685Z,6.60
2019-01-14T08:07:43.837Z,6.60
2019-01-14T08:10:14.090Z,6.60
2019-01-14T08:12:43.281Z,6.70
2019-01-14T08:15:14.239Z,6.80
2019-01-14T08:17:43.378Z,6.60
2019-01-14T08:20:12.550Z,6.50
2019-01-14T08:22:41.796Z,6.50
2019-01-14T08:25:11.772Z,6.20
2019-01-14T08:27:41.014Z,6.20
2019-01-14T08:30:13.572Z,6.20
2019-01-14T08:32:42.766Z,6.30
2019-01-14T08:35:11.925Z,6.40
2019-01-14T08:37:41.179Z,6.30
2019-01-14T08:40:11.501Z,6.30
2019-01-14T08:42:40.749Z,6.30
2019-01-14T08:45:10.618Z,6.10
2019-01-14T08:47:39.841Z,6.20
2019-01-14T08:50:12.204Z,6.20
2019-01-14T08:52:41.337Z,6.20
2019-01-14T08:55:10.658Z,6.00
2019-01-14T08:57:39.896Z,6.30
2019-01-14T09:00:12.597Z,6.30
2019-01-14T09:02:41.737Z,6.50
2019-01-14T09:05:11.005Z,6.50
2019-01-14T09:07:40.149Z,6.40
2019-01-14T09:10:12.424Z,6.40
2019-01-14T09:12:41.700Z,6.30
2019-01-14T09:15:12.209Z,6.20
2019-01-14T09:17:41.602Z,6.20
2019-01-14T09:20:14.317Z,6.20
2019-01-14T09:22:43.657Z,6.30
2019-01-14T09:25:12.976Z,6.30
2019-01-14T09:27:42.296Z,6.30
2019-01-14T09:30:17.628Z,6.40
2019-01-14T09:32:47.592Z,6.50
2019-01-14T09:35:16.773Z,6.40
2019-01-14T09:37:47.828Z,6.40
2019-01-14T09:40:18.518Z,6.30
2019-01-14T09:42:47.917Z,6.30
2019-01-14T09:45:16.999Z,6.40
2019-01-14T09:47:46.146Z,6.50
2019-01-14T09:50:15.752Z,6.40
2019-01-14T09:52:44.983Z,6.40
2019-01-14T09:55:16.047Z,6.40
2019-01-14T09:57:45.433Z,6.40
2019-01-14T10:00:14.636Z,6.50
2019-01-14T10:02:44.938Z,6.50
2019-01-14T10:05:15.626Z,6.50
2019-01-14T10:07:45.575Z,6.50
2019-01-14T10:10:16.300Z,6.40
2019-01-14T10:12:45.785Z,6.40
2019-01-14T10:15:18.124Z,6.40
2019-01-14T10:17:50.814Z,6.30
2019-01-14T10:20:20.169Z,6.60
2019-01-14T10:22:49.901Z,6.70
2019-01-14T10:25:19.657Z,6.70
2019-01-14T10:27:49.563Z,6.80
2019-01-14T10:30:19.017Z,6.90
2019-01-14T10:32:48.576Z,7.00
2019-01-14T10:35:18.681Z,7.10
2019-01-14T10:37:47.840Z,7.10
2019-01-14T10:40:17.220Z,7.10
2019-01-14T10:42:46.471Z,7.20
2019-01-14T10:45:18.181Z,7.20
2019-01-14T10:47:47.394Z,7.10
2019-01-14T10:50:16.756Z,7.00
2019-01-14T10:52:45.990Z,6.90
2019-01-14T10:55:15.325Z,6.90
2019-01-14T10:57:44.526Z,6.90
2019-01-14T11:00:16.805Z,7.00
2019-01-14T11:02:47.905Z,7.10
2019-01-14T11:05:20.215Z,6.90
2019-01-14T11:07:49.390Z,7.10
2019-01-14T11:10:18.676Z,7.20
2019-01-14T11:12:47.994Z,7.10
2019-01-14T11:15:17.332Z,7.10
2019-01-14T11:17:46.467Z,7.40
2019-01-14T11:20:17.945Z,7.50
2019-01-14T11:22:47.107Z,7.50
2019-01-14T11:25:16.394Z,7.70
2019-01-14T11:27:45.567Z,8.10
2019-01-14T11:30:18.345Z,9.20
2019-01-14T11:32:47.650Z,9.50
2019-01-14T11:35:16.845Z,9.00
2019-01-14T11:37:46.145Z,8.50
2019-01-14T11:40:20.467Z,8.30
2019-01-14T11:42:49.717Z,8.00
2019-01-14T11:45:18.961Z,7.60
2019-01-14T11:47:48.088Z,7.30
2019-01-14T11:50:17.505Z,7.60
2019-01-14T11:52:46.979Z,8.00
2019-01-14T11:55:16.178Z,8.00
2019-01-14T11:57:46.724Z,7.80
2019-01-14T12:00:21.150Z,7.60
2019-01-14T12:02:50.401Z,7.40
2019-01-14T12:05:19.625Z,7.20
2019-01-14T12:07:48.840Z,7.80
2019-01-14T12:10:18.004Z,8.30
2019-01-14T12:12:47.245Z,8.20
2019-01-14T12:15:22.460Z,8.90
2019-01-14T12:17:51.685Z,9.50
2019-01-14T12:20:20.835Z,8.90
2019-01-14T12:22:50.010Z,8.50
2019-01-14T12:25:20.022Z,8.30
2019-01-14T12:27:49.441Z,8.20
2019-01-14T12:30:34.429Z,8.10
2019-01-14T12:33:03.640Z,8.10
2019-01-14T12:35:32.960Z,7.90
2019-01-14T12:38:02.176Z,7.90
2019-01-14T12:40:31.409Z,7.70
2019-01-14T12:43:00.577Z,7.60
2019-01-14T12:45:29.891Z,7.40
2019-01-14T12:47:59.390Z,7.20
2019-01-14T12:50:28.600Z,7.40
2019-01-14T12:52:57.943Z,7.30
2019-01-14T12:55:27.297Z,7.70
2019-01-14T12:57:56.550Z,8.40
2019-01-14T13:00:29.900Z,9.30
2019-01-14T13:02:59.143Z,9.40
2019-01-14T13:05:29.681Z,9.00
2019-01-14T13:07:58.997Z,9.40
2019-01-14T13:10:28.514Z,10.20
2019-01-14T13:12:57.693Z,10.80
2019-01-14T13:15:27.880Z,10.10
2019-01-14T13:17:57.053Z,9.50
2019-01-14T13:20:26.322Z,9.90
2019-01-14T13:22:55.545Z,9.80
2019-01-14T13:25:24.783Z,9.70
2019-01-14T13:27:53.953Z,9.40
2019-01-14T13:30:27.912Z,9.30
2019-01-14T13:32:57.829Z,9.30
2019-01-14T13:35:27.036Z,10.00
2019-01-14T13:37:56.256Z,9.60
2019-01-14T13:40:25.500Z,9.30
2019-01-14T13:42:54.625Z,8.60
2019-01-14T13:45:24.013Z,8.70
2019-01-14T13:47:53.156Z,9.10
2019-01-14T13:50:24.009Z,9.10
2019-01-14T13:52:53.189Z,8.60
2019-01-14T13:55:22.887Z,8.80
2019-01-14T13:57:52.428Z,8.60
2019-01-14T14:00:26.289Z,8.20
2019-01-14T14:02:55.407Z,8.00
2019-01-14T14:05:24.791Z,8.30
2019-01-14T14:07:53.970Z,8.30
2019-01-14T14:10:28.790Z,8.50
2019-01-14T14:12:57.998Z,8.70
2019-01-14T14:15:27.698Z,9.00
2019-01-14T14:17:56.869Z,9.20
2019-01-14T14:20:26.092Z,9.20
2019-01-14T14:22:55.275Z,8.90
2019-01-14T14:25:24.460Z,8.40
2019-01-14T14:27:53.625Z,8.40
2019-01-14T14:30:25.003Z,8.10
2019-01-14T14:32:54.406Z,8.20
2019-01-14T14:35:24.097Z,8.00
2019-01-14T14:38:00.601Z,7.90
2019-01-14T14:40:24.176Z,7.80
2019-01-14T14:42:53.536Z,7.70
2019-01-14T14:45:22.703Z,7.50
2019-01-14T14:47:51.824Z,7.40
2019-01-14T14:50:21.075Z,7.20
2019-01-14T14:52:50.382Z,7.10
2019-01-14T14:55:19.635Z,7.10
2019-01-14T14:57:48.820Z,6.80
2019-01-14T15:00:19.605Z,6.60
2019-01-14T15:02:48.840Z,6.70
2019-01-14T15:05:18.552Z,6.70
2019-01-14T15:07:47.804Z,6.70
2019-01-14T15:10:18.593Z,6.60
2019-01-14T15:12:47.905Z,6.50
2019-01-14T15:15:18.487Z,6.50
2019-01-14T15:17:47.627Z,6.40
2019-01-14T15:20:17.888Z,6.40
2019-01-14T15:22:47.015Z,6.50
2019-01-14T15:25:16.153Z,6.40
2019-01-14T15:27:45.385Z,6.30
2019-01-14T15:30:23.264Z,6.10
2019-01-14T15:32:52.384Z,6.20
2019-01-14T15:35:21.625Z,6.10
2019-01-14T15:37:50.752Z,6.10
2019-01-14T15:40:20.709Z,6.20
2019-01-14T15:42:49.857Z,6.10
2019-01-14T15:45:19.566Z,6.20
2019-01-14T15:47:48.737Z,6.20
2019-01-14T15:50:18.005Z,6.10
2019-01-14T15:52:47.269Z,6.00
2019-01-14T15:55:18.972Z,6.00
2019-01-14T15:57:48.091Z,5.90
2019-01-14T16:00:18.001Z,5.70
2019-01-14T16:02:47.970Z,5.60
2019-01-14T16:05:17.421Z,5.60
2019-01-14T16:07:46.744Z,5.50
2019-01-14T16:10:20.762Z,5.40
2019-01-14T16:12:49.890Z,5.40
2019-01-14T16:15:19.205Z,5.30
2019-01-14T16:17:48.410Z,5.30
2019-01-14T16:20:19.246Z,5.30
2019-01-14T16:22:48.926Z,5.30
2019-01-14T16:25:18.141Z,5.20
2019-01-14T16:27:48.429Z,5.30
2019-01-14T16:30:25.481Z,5.20
2019-01-14T16:32:54.770Z,5.20
2019-01-14T16:35:23.992Z,5.30
2019-01-14T16:37:53.191Z,5.10
2019-01-14T16:40:22.392Z,5.10
2019-01-14T16:42:51.682Z,5.00
2019-01-14T16:45:24.561Z,5.10
2019-01-14T16:47:53.813Z,5.00
2019-01-14T16:50:23.092Z,5.00
2019-01-14T16:52:52.370Z,4.90
2019-01-14T16:55:37.649Z,4.90
2019-01-14T16:58:06.865Z,4.90
2019-01-14T17:00:36.077Z,4.90
2019-01-14T17:03:05.240Z,4.90
2019-01-14T17:05:35.611Z,4.80
2019-01-14T17:08:05.307Z,5.00
2019-01-14T17:10:34.476Z,4.90
2019-01-14T17:13:03.714Z,4.80
2019-01-14T17:15:32.937Z,4.80
2019-01-14T17:18:02.101Z,4.80
2019-01-14T17:20:31.244Z,4.70
2019-01-14T17:23:00.525Z,4.70
2019-01-14T17:25:29.642Z,4.60
2019-01-14T17:27:58.837Z,4.50
2019-01-14T17:30:28.086Z,4.50
2019-01-14T17:32:57.263Z,4.40
2019-01-14T17:35:26.433Z,4.50
2019-01-14T17:37:55.628Z,4.40
2019-01-14T17:40:24.877Z,4.40
2019-01-14T17:42:54.044Z,4.40
2019-01-14T17:45:23.379Z,4.30
2019-01-14T17:47:53.018Z,4.30
2019-01-14T17:50:22.308Z,4.30
2019-01-14T17:52:51.953Z,4.30
2019-01-14T17:55:21.092Z,4.30
2019-01-14T17:57:50.246Z,4.30
2019-01-14T18:00:21.936Z,4.40
2019-01-14T18:02:51.601Z,4.30
2019-01-14T18:05:20.728Z,4.40
2019-01-14T18:07:49.861Z,4.40
2019-01-14T18:10:19.724Z,4.50
2019-01-14T18:12:49.003Z,4.50
2019-01-14T18:15:18.269Z,4.60
2019-01-14T18:17:47.518Z,4.60
2019-01-14T18:20:18.483Z,4.60
2019-01-14T18:22:48.167Z,4.70
2019-01-14T18:25:17.458Z,4.70
2019-01-14T18:27:46.641Z,4.70
2019-01-14T18:30:22.209Z,4.70
2019-01-14T18:32:51.460Z,4.80
2019-01-14T18:35:20.704Z,4.80
2019-01-14T18:37:49.992Z,4.90
2019-01-14T18:40:19.260Z,4.80
2019-01-14T18:42:48.726Z,4.80
2019-01-14T18:45:19.489Z,4.70
2019-01-14T18:47:49.324Z,4.70
2019-01-14T18:50:20.814Z,4.70
2019-01-14T18:52:50.062Z,4.60
2019-01-14T18:55:19.310Z,4.50
2019-01-14T18:57:48.811Z,4.40
2019-01-14T19:00:19.829Z,4.30
2019-01-14T19:02:49.097Z,4.20
2019-01-14T19:05:18.248Z,4.20
2019-01-14T19:07:47.550Z,4.10
2019-01-14T19:10:16.690Z,4.00
2019-01-14T19:12:45.977Z,4.00
2019-01-14T19:15:16.841Z,4.00
2019-01-14T19:17:46.017Z,4.00
2019-01-14T19:20:26.320Z,4.10
2019-01-14T19:22:55.889Z,4.00
2019-01-14T19:25:25.232Z,4.00
2019-01-14T19:27:54.434Z,4.10
2019-01-14T19:30:23.644Z,4.20
2019-01-14T19:32:52.791Z,4.20
2019-01-14T19:35:23.690Z,4.10
2019-01-14T19:37:52.854Z,4.10
2019-01-14T19:40:22.299Z,4.20
2019-01-14T19:42:51.702Z,4.30
2019-01-14T19:45:21.646Z,4.30
2019-01-14T19:47:50.787Z,4.30
2019-01-14T19:50:21.897Z,4.40
2019-01-14T19:52:51.074Z,4.40
2019-01-14T19:55:20.325Z,4.40
2019-01-14T19:57:49.571Z,4.30
2019-01-14T20:00:24.388Z,4.40
2019-01-14T20:02:53.740Z,4.50
2019-01-14T20:05:23.026Z,4.50
2019-01-14T20:07:52.585Z,4.40
2019-01-14T20:10:21.810Z,4.40
2019-01-14T20:12:51.110Z,4.30
2019-01-14T20:15:20.668Z,4.30
2019-01-14T20:17:49.858Z,4.30
2019-01-14T20:20:19.012Z,4.40
2019-01-14T20:22:48.291Z,4.30
2019-01-14T20:25:17.569Z,4.30
2019-01-14T20:27:46.800Z,4.20
2019-01-14T20:30:19.173Z,4.30
2019-01-14T20:32:48.498Z,4.30
2019-01-14T20:35:18.623Z,4.30
2019-01-14T20:37:47.876Z,4.40
2019-01-14T20:40:17.189Z,4.40
2019-01-14T20:42:46.378Z,4.40
2019-01-14T20:45:16.533Z,4.50
2019-01-14T20:47:45.959Z,4.50
2019-01-14T20:50:18.419Z,4.50
2019-01-14T20:52:47.773Z,4.50
2019-01-14T20:55:17.014Z,4.50
2019-01-14T20:57:46.318Z,4.50
2019-01-14T21:00:21.943Z,4.50
2019-01-14T21:02:51.113Z,4.50
2019-01-14T21:05:20.597Z,4.50
2019-01-14T21:07:49.773Z,4.50
2019-01-14T21:10:19.156Z,4.50
2019-01-14T21:12:48.603Z,4.50
2019-01-14T21:15:17.834Z,4.50
2019-01-14T21:17:46.970Z,4.50
2019-01-14T21:20:21.453Z,4.60
2019-01-14T21:22:51.141Z,4.60
2019-01-14T21:25:20.353Z,4.50
2019-01-14T21:27:49.665Z,4.40
2019-01-14T21:30:20.749Z,4.50
2019-01-14T21:32:50.004Z,4.60
2019-01-14T21:35:19.381Z,4.60
2019-01-14T21:37:49.264Z,4.50
2019-01-14T21:40:18.526Z,4.50
2019-01-14T21:42:47.752Z,4.50
2019-01-14T21:45:17.044Z,4.50
2019-01-14T21:47:46.321Z,4.40
2019-01-14T21:50:19.633Z,4.40
2019-01-14T21:52:48.933Z,4.50
2019-01-14T21:55:20.273Z,4.40
2019-01-14T21:57:49.462Z,4.40
2019-01-14T22:00:20.654Z,4.40
2019-01-14T22:02:49.987Z,4.40
2019-01-14T22:05:19.238Z,4.40
2019-01-14T22:07:48.511Z,4.30
2019-01-14T22:10:20.374Z,4.30
2019-01-14T22:12:49.585Z,4.30
2019-01-14T22:15:18.921Z,4.30
2019-01-14T22:17:48.089Z,4.30
2019-01-14T22:20:22.537Z,4.30
2019-01-14T22:22:51.897Z,4.30
2019-01-14T22:25:21.093Z,4.40
2019-01-14T22:27:50.416Z,4.30
2019-01-14T22:30:22.053Z,4.40
2019-01-14T22:32:51.293Z,4.30
2019-01-14T22:35:20.419Z,4.30
2019-01-14T22:37:49.831Z,4.40
2019-01-14T22:40:20.093Z,4.30
2019-01-14T22:42:49.401Z,4.20
2019-01-14T22:45:18.563Z,4.20
2019-01-14T22:47:47.786Z,4.20
2019-01-14T22:50:17.303Z,4.30
2019-01-14T22:52:46.568Z,4.30
2019-01-14T22:55:16.125Z,4.30
2019-01-14T22:57:45.354Z,4.30
2019-01-14T23:00:49.493Z,4.40
2019-01-14T23:03:18.937Z,4.30
2019-01-14T23:05:48.188Z,4.30
2019-01-14T23:08:17.445Z,4.30
2019-01-14T23:10:46.636Z,4.30
2019-01-14T23:13:15.829Z,4.40
2019-01-14T23:15:45.153Z,4.30
2019-01-14T23:18:14.381Z,4.30
2019-01-14T23:20:43.622Z,4.20
2019-01-14T23:23:14.154Z,4.20
2019-01-14T23:25:43.363Z,4.20
2019-01-14T23:28:12.524Z,4.20
2019-01-14T23:30:41.773Z,4.20
2019-01-14T23:33:11.058Z,4.20
2019-01-14T23:35:40.249Z,4.20
2019-01-14T23:38:09.502Z,4.20
2019-01-14T23:40:38.703Z,4.20
2019-01-14T23:43:07.956Z,4.20
2019-01-14T23:45:37.250Z,4.20
2019-01-14T23:48:06.466Z,4.20
2019-01-14T23:50:35.759Z,4.20
2019-01-14T23:53:05.097Z,4.20
2019-01-14T23:55:34.391Z,4.20
2019-01-14T23:58:03.617Z,4.20
